Terminal Aerodrome Forecast
Issued by NWS Corpus Christi, TX

Home | Current Version | Previous Version | Text Only | Print | Product List | Glossary On
Versions: 1 2 3 4 5 6 7 8 9 10 11 12 13 14 15 16 17 18
183
FTUS44 KCRP 250908 AAA
TAFCRP
TAF AMD
KCRP 250908Z 2509/2606 05005KT P6SM VCSH SCT020 BKN150
      TEMPO 2509/2513 6SM -SHRA BKN020
     FM251300 05006KT P6SM VCTS BKN018CB BKN080
      TEMPO 2513/2517 4SM TSRA BKN012CB
     FM251700 09010KT P6SM VCTS BKN025CB
      TEMPO 2517/2521 3SM TSRA OVC020CB
     FM252100 09012G18KT P6SM SCT040 BKN150
     FM260200 10008KT P6SM SCT020 BKN250 PROB30 2603/2606 5SM -SHRA
      BKN020=

USA.gov is the U.S. government's official web portal to all federal, state and local government web resources and services.